KHCO

Details ICAO KHCO
Name HALLOCK MUNI
Region United States
Timezone America/Chicago (UTC-5.0)
Plans Departing 1
Arriving 1
Stats Elevation 819 ft / 250 m (AMSL)
Location 48.752742° -96.943003°
Runways 1
Magnetic Variation 2.880° E
Sunrise 2018-05-20 10:41:35 UTC / 2018-05-20 05:41:35 Local
Sunset 2018-05-21 02:09:53 UTC / 2018-05-20 21:09:53 Local
Advertisement - Login to hide

Runways

ID Width Length Bearing (true) Bearing (mag) Surface Threshold Offset Overrun Length
13 75 ft / 23 m 4,003 ft / 1,220 m 139.97° 137.09° Asphalt 0 ft / 0 m 0 ft / 0 m
31 75 ft / 23 m 4,003 ft / 1,220 m 319.98° 317.10° Asphalt 0 ft / 0 m 0 ft / 0 m

Map

Weather


0- 5 10 15 20 25 30 35+ Temperature / ° C

Clouds and Precipitation
Forecast for 2018-05-20 12:00 UTC. Updated 6 minutes ago

Ground ~20,000 ft ~40,000 ft Winds

METAR

KHCO 200915Z AUTO 15006KT 10SM CLR 03/02 A3022 RMK AO2

TAF

Not found

Frequencies

Recorded 126.47 MHz AWOS 3
Approach 132.15 MHz MINNEAPOLIS APP/DEP
Unicom 122.80 MHz CTAF/UNICOM
Warning: Do not use this data for real-world aviation or navigation. No guarantee of current accuracy is given.